sensor_id;sensor_type;location;lat;lon;timestamp;P1;durP1;ratioP1;P2;durP2;ratioP2
8580;SDS011;4328;48.622;9.230;2023-03-31T00:00:16;3.90;;;2.17;;
8580;SDS011;4328;48.622;9.230;2023-03-31T00:02:42;2.43;;;1.60;;
8580;SDS011;4328;48.622;9.230;2023-03-31T00:05:10;7.73;;;1.70;;
8580;SDS011;4328;48.622;9.230;2023-03-31T00:07:42;3.70;;;1.70;;
8580;SDS011;4328;48.622;9.230;2023-03-31T00:10:10;2.57;;;1.73;;
8580;SDS011;4328;48.622;9.230;2023-03-31T00:12:36;2.00;;;1.90;;
8580;SDS011;4328;48.622;9.230;2023-03-31T00:15:04;2.93;;;1.50;;
8580;SDS011;4328;48.622;9.230;2023-03-31T00:17:31;4.27;;;1.73;;
8580;SDS011;4328;48.622;9.230;2023-03-31T00:19:58;3.27;;;1.80;;
8580;SDS011;4328;48.622;9.230;2023-03-31T00:22:28;1.97;;;1.83;;
8580;SDS011;4328;48.622;9.230;2023-03-31T00:24:54;3.60;;;1.80;;
8580;SDS011;4328;48.622;9.230;2023-03-31T00:27:20;2.80;;;1.77;;
8580;SDS011;4328;48.622;9.230;2023-03-31T00:29:47;2.23;;;1.50;;
8580;SDS011;4328;48.622;9.230;2023-03-31T00:32:16;4.17;;;2.00;;
8580;SDS011;4328;48.622;9.230;2023-03-31T00:34:44;2.90;;;1.80;;
8580;SDS011;4328;48.622;9.230;2023-03-31T00:37:10;2.97;;;2.00;;
8580;SDS011;4328;48.622;9.230;2023-03-31T00:39:40;4.13;;;1.90;;
8580;SDS011;4328;48.622;9.230;2023-03-31T00:42:08;2.47;;;1.90;;
8580;SDS011;4328;48.622;9.230;2023-03-31T00:44:37;3.70;;;1.77;;
8580;SDS011;4328;48.622;9.230;2023-03-31T00:47:05;2.67;;;2.03;;
8580;SDS011;4328;48.622;9.230;2023-03-31T00:49:34;2.00;;;1.80;;
8580;SDS011;4328;48.622;9.230;2023-03-31T00:52:04;3.67;;;1.77;;
8580;SDS011;4328;48.622;9.230;2023-03-31T00:54:32;3.20;;;1.80;;
8580;SDS011;4328;48.622;9.230;2023-03-31T00:56:59;4.50;;;1.93;;
8580;SDS011;4328;48.622;9.230;2023-03-31T00:59:28;2.90;;;1.73;;
8580;SDS011;4328;48.622;9.230;2023-03-31T01:01:55;2.67;;;1.97;;
8580;SDS011;4328;48.622;9.230;2023-03-31T01:04:26;2.80;;;1.63;;
8580;SDS011;4328;48.622;9.230;2023-03-31T01:06:55;3.33;;;2.00;;
8580;SDS011;4328;48.622;9.230;2023-03-31T01:09:25;2.17;;;1.77;;
8580;SDS011;4328;48.622;9.230;2023-03-31T01:11:54;4.57;;;1.90;;
8580;SDS011;4328;48.622;9.230;2023-03-31T01:14:21;2.67;;;1.97;;
8580;SDS011;4328;48.622;9.230;2023-03-31T01:16:48;2.93;;;1.90;;
8580;SDS011;4328;48.622;9.230;2023-03-31T01:19:19;2.57;;;1.67;;
8580;SDS011;4328;48.622;9.230;2023-03-31T01:27:37;3.97;;;1.80;;
8580;SDS011;4328;48.622;9.230;2023-03-31T01:30:17;5.03;;;2.00;;
8580;SDS011;4328;48.622;9.230;2023-03-31T01:33:00;2.73;;;1.40;;
8580;SDS011;4328;48.622;9.230;2023-03-31T01:38:20;3.40;;;1.90;;
8580;SDS011;4328;48.622;9.230;2023-03-31T01:40:57;4.17;;;1.77;;
8580;SDS011;4328;48.622;9.230;2023-03-31T01:43:28;4.17;;;1.80;;
8580;SDS011;4328;48.622;9.230;2023-03-31T01:45:59;3.40;;;1.77;;
8580;SDS011;4328;48.622;9.230;2023-03-31T01:48:30;4.53;;;2.10;;
8580;SDS011;4328;48.622;9.230;2023-03-31T01:51:00;3.83;;;1.90;;
8580;SDS011;4328;48.622;9.230;2023-03-31T01:53:28;4.27;;;1.80;;
8580;SDS011;4328;48.622;9.230;2023-03-31T01:56:01;4.07;;;1.80;;
8580;SDS011;4328;48.622;9.230;2023-03-31T01:58:31;4.10;;;1.70;;
8580;SDS011;4328;48.622;9.230;2023-03-31T02:01:01;2.73;;;1.80;;
8580;SDS011;4328;48.622;9.230;2023-03-31T02:03:32;3.83;;;1.80;;
8580;SDS011;4328;48.622;9.230;2023-03-31T02:06:02;1.83;;;1.57;;
8580;SDS011;4328;48.622;9.230;2023-03-31T02:08:30;5.13;;;1.97;;
8580;SDS011;4328;48.622;9.230;2023-03-31T02:11:01;5.00;;;2.23;;
8580;SDS011;4328;48.622;9.230;2023-03-31T02:13:28;5.07;;;2.00;;
8580;SDS011;4328;48.622;9.230;2023-03-31T02:15:55;4.90;;;1.97;;
8580;SDS011;4328;48.622;9.230;2023-03-31T02:18:24;6.97;;;2.07;;
8580;SDS011;4328;48.622;9.230;2023-03-31T02:20:51;3.87;;;2.20;;
8580;SDS011;4328;48.622;9.230;2023-03-31T02:23:22;4.87;;;2.10;;
8580;SDS011;4328;48.622;9.230;2023-03-31T02:25:50;3.70;;;1.77;;
8580;SDS011;4328;48.622;9.230;2023-03-31T02:28:20;3.53;;;1.97;;
8580;SDS011;4328;48.622;9.230;2023-03-31T02:30:48;2.60;;;2.10;;
8580;SDS011;4328;48.622;9.230;2023-03-31T02:33:17;4.07;;;2.10;;
8580;SDS011;4328;48.622;9.230;2023-03-31T02:35:43;3.60;;;2.20;;
8580;SDS011;4328;48.622;9.230;2023-03-31T02:38:10;7.17;;;2.30;;
8580;SDS011;4328;48.622;9.230;2023-03-31T02:40:36;5.07;;;2.10;;
8580;SDS011;4328;48.622;9.230;2023-03-31T02:43:03;4.83;;;1.93;;
8580;SDS011;4328;48.622;9.230;2023-03-31T02:45:37;4.27;;;2.13;;
8580;SDS011;4328;48.622;9.230;2023-03-31T02:48:03;4.20;;;2.20;;
8580;SDS011;4328;48.622;9.230;2023-03-31T02:50:33;5.07;;;2.50;;
8580;SDS011;4328;48.622;9.230;2023-03-31T02:53:05;3.93;;;2.30;;
8580;SDS011;4328;48.622;9.230;2023-03-31T02:55:37;4.27;;;2.17;;
8580;SDS011;4328;48.622;9.230;2023-03-31T02:58:30;3.03;;;2.10;;
8580;SDS011;4328;48.622;9.230;2023-03-31T03:01:12;3.40;;;2.50;;
8580;SDS011;4328;48.622;9.230;2023-03-31T03:03:45;4.57;;;2.17;;
8580;SDS011;4328;48.622;9.230;2023-03-31T03:06:23;3.97;;;2.43;;
8580;SDS011;4328;48.622;9.230;2023-03-31T03:08:59;2.43;;;1.83;;
8580;SDS011;4328;48.622;9.230;2023-03-31T03:11:30;5.10;;;2.40;;
8580;SDS011;4328;48.622;9.230;2023-03-31T03:13:59;5.37;;;2.23;;
8580;SDS011;4328;48.622;9.230;2023-03-31T03:16:31;4.23;;;2.50;;
8580;SDS011;4328;48.622;9.230;2023-03-31T03:19:00;3.67;;;2.40;;
8580;SDS011;4328;48.622;9.230;2023-03-31T03:21:27;4.20;;;2.60;;
8580;SDS011;4328;48.622;9.230;2023-03-31T03:23:53;4.83;;;2.30;;
8580;SDS011;4328;48.622;9.230;2023-03-31T03:26:20;6.43;;;2.80;;
8580;SDS011;4328;48.622;9.230;2023-03-31T03:28:47;3.47;;;2.30;;
8580;SDS011;4328;48.622;9.230;2023-03-31T03:31:15;4.67;;;2.43;;
8580;SDS011;4328;48.622;9.230;2023-03-31T03:33:42;3.10;;;2.40;;
8580;SDS011;4328;48.622;9.230;2023-03-31T03:36:09;5.03;;;2.47;;
8580;SDS011;4328;48.622;9.230;2023-03-31T03:38:35;2.93;;;2.53;;
8580;SDS011;4328;48.622;9.230;2023-03-31T03:41:02;4.03;;;2.50;;
8580;SDS011;4328;48.622;9.230;2023-03-31T03:43:28;3.93;;;2.20;;
8580;SDS011;4328;48.622;9.230;2023-03-31T03:45:55;4.67;;;2.50;;
8580;SDS011;4328;48.622;9.230;2023-03-31T03:48:21;5.73;;;2.40;;
8580;SDS011;4328;48.622;9.230;2023-03-31T03:50:49;5.57;;;2.80;;
8580;SDS011;4328;48.622;9.230;2023-03-31T03:53:17;4.80;;;2.40;;
8580;SDS011;4328;48.622;9.230;2023-03-31T03:55:44;6.10;;;2.77;;
8580;SDS011;4328;48.622;9.230;2023-03-31T03:58:13;5.03;;;2.50;;
8580;SDS011;4328;48.622;9.230;2023-03-31T04:00:39;4.40;;;2.90;;
8580;SDS011;4328;48.622;9.230;2023-03-31T04:03:06;8.50;;;3.60;;
8580;SDS011;4328;48.622;9.230;2023-03-31T04:05:32;7.07;;;4.07;;
8580;SDS011;4328;48.622;9.230;2023-03-31T04:08:00;4.70;;;2.77;;
8580;SDS011;4328;48.622;9.230;2023-03-31T04:10:27;4.03;;;3.10;;
8580;SDS011;4328;48.622;9.230;2023-03-31T04:12:53;5.63;;;2.70;;
8580;SDS011;4328;48.622;9.230;2023-03-31T04:15:19;6.27;;;3.20;;
8580;SDS011;4328;48.622;9.230;2023-03-31T04:17:46;8.67;;;3.67;;
8580;SDS011;4328;48.622;9.230;2023-03-31T04:20:15;4.90;;;3.17;;
8580;SDS011;4328;48.622;9.230;2023-03-31T04:22:41;6.13;;;3.23;;
8580;SDS011;4328;48.622;9.230;2023-03-31T04:25:13;5.73;;;3.10;;
8580;SDS011;4328;48.622;9.230;2023-03-31T04:27:40;4.57;;;2.80;;
8580;SDS011;4328;48.622;9.230;2023-03-31T04:30:11;5.33;;;2.80;;
8580;SDS011;4328;48.622;9.230;2023-03-31T04:32:37;3.03;;;2.70;;
8580;SDS011;4328;48.622;9.230;2023-03-31T04:35:04;5.27;;;2.60;;
8580;SDS011;4328;48.622;9.230;2023-03-31T04:37:30;4.60;;;3.07;;
8580;SDS011;4328;48.622;9.230;2023-03-31T04:39:59;7.97;;;3.23;;
8580;SDS011;4328;48.622;9.230;2023-03-31T04:42:32;6.87;;;2.90;;
8580;SDS011;4328;48.622;9.230;2023-03-31T04:44:59;4.67;;;2.90;;
8580;SDS011;4328;48.622;9.230;2023-03-31T04:47:25;4.60;;;2.93;;
8580;SDS011;4328;48.622;9.230;2023-03-31T04:49:52;6.27;;;2.73;;
8580;SDS011;4328;48.622;9.230;2023-03-31T04:52:18;6.70;;;2.60;;
8580;SDS011;4328;48.622;9.230;2023-03-31T04:54:45;4.17;;;2.57;;
8580;SDS011;4328;48.622;9.230;2023-03-31T04:57:11;3.97;;;2.53;;
8580;SDS011;4328;48.622;9.230;2023-03-31T04:59:39;3.40;;;2.40;;
8580;SDS011;4328;48.622;9.230;2023-03-31T05:02:05;2.90;;;2.40;;
8580;SDS011;4328;48.622;9.230;2023-03-31T05:04:32;5.50;;;2.80;;
8580;SDS011;4328;48.622;9.230;2023-03-31T05:06:58;4.73;;;3.20;;
8580;SDS011;4328;48.622;9.230;2023-03-31T05:09:25;8.93;;;6.37;;
8580;SDS011;4328;48.622;9.230;2023-03-31T05:11:51;9.60;;;7.00;;
8580;SDS011;4328;48.622;9.230;2023-03-31T05:14:18;10.70;;;6.67;;
8580;SDS011;4328;48.622;9.230;2023-03-31T05:16:46;9.30;;;6.80;;
8580;SDS011;4328;48.622;9.230;2023-03-31T05:19:12;5.60;;;4.73;;
8580;SDS011;4328;48.622;9.230;2023-03-31T05:21:39;7.10;;;5.00;;
8580;SDS011;4328;48.622;9.230;2023-03-31T05:24:05;8.00;;;4.80;;
8580;SDS011;4328;48.622;9.230;2023-03-31T05:26:32;6.40;;;4.37;;
8580;SDS011;4328;48.622;9.230;2023-03-31T05:28:58;3.60;;;3.17;;
8580;SDS011;4328;48.622;9.230;2023-03-31T05:31:25;4.70;;;3.23;;
8580;SDS011;4328;48.622;9.230;2023-03-31T05:33:53;5.07;;;3.10;;
8580;SDS011;4328;48.622;9.230;2023-03-31T05:36:19;6.80;;;3.20;;
8580;SDS011;4328;48.622;9.230;2023-03-31T05:38:47;7.50;;;3.27;;
8580;SDS011;4328;48.622;9.230;2023-03-31T05:41:13;6.63;;;3.87;;
8580;SDS011;4328;48.622;9.230;2023-03-31T05:43:41;5.40;;;3.30;;
8580;SDS011;4328;48.622;9.230;2023-03-31T05:46:08;4.40;;;3.40;;
8580;SDS011;4328;48.622;9.230;2023-03-31T05:48:34;6.10;;;3.57;;
8580;SDS011;4328;48.622;9.230;2023-03-31T05:51:02;5.87;;;3.57;;
8580;SDS011;4328;48.622;9.230;2023-03-31T05:53:29;6.07;;;3.37;;
8580;SDS011;4328;48.622;9.230;2023-03-31T05:55:56;7.80;;;3.33;;
8580;SDS011;4328;48.622;9.230;2023-03-31T05:58:22;6.27;;;3.63;;
8580;SDS011;4328;48.622;9.230;2023-03-31T06:00:49;4.77;;;3.30;;
8580;SDS011;4328;48.622;9.230;2023-03-31T06:03:18;4.47;;;3.60;;
8580;SDS011;4328;48.622;9.230;2023-03-31T06:05:46;6.20;;;3.57;;
8580;SDS011;4328;48.622;9.230;2023-03-31T06:08:14;5.37;;;4.03;;
8580;SDS011;4328;48.622;9.230;2023-03-31T06:10:40;4.83;;;3.80;;
8580;SDS011;4328;48.622;9.230;2023-03-31T06:13:06;6.50;;;4.30;;
8580;SDS011;4328;48.622;9.230;2023-03-31T06:15:33;4.20;;;3.80;;
8580;SDS011;4328;48.622;9.230;2023-03-31T06:17:59;4.40;;;4.00;;
8580;SDS011;4328;48.622;9.230;2023-03-31T06:20:26;7.97;;;4.87;;
8580;SDS011;4328;48.622;9.230;2023-03-31T06:22:52;6.50;;;3.90;;
8580;SDS011;4328;48.622;9.230;2023-03-31T06:25:20;7.53;;;4.10;;
8580;SDS011;4328;48.622;9.230;2023-03-31T06:27:46;8.27;;;4.27;;
8580;SDS011;4328;48.622;9.230;2023-03-31T06:30:13;8.10;;;4.43;;
8580;SDS011;4328;48.622;9.230;2023-03-31T06:32:39;6.53;;;4.30;;
8580;SDS011;4328;48.622;9.230;2023-03-31T06:35:06;7.73;;;4.23;;
8580;SDS011;4328;48.622;9.230;2023-03-31T06:37:32;7.97;;;4.10;;
8580;SDS011;4328;48.622;9.230;2023-03-31T06:39:59;8.07;;;4.80;;
8580;SDS011;4328;48.622;9.230;2023-03-31T06:42:26;7.37;;;3.67;;
8580;SDS011;4328;48.622;9.230;2023-03-31T06:44:53;9.07;;;4.43;;
8580;SDS011;4328;48.622;9.230;2023-03-31T06:47:19;8.57;;;4.27;;
8580;SDS011;4328;48.622;9.230;2023-03-31T06:49:46;6.37;;;4.40;;
8580;SDS011;4328;48.622;9.230;2023-03-31T06:52:12;6.07;;;4.37;;
8580;SDS011;4328;48.622;9.230;2023-03-31T06:54:39;7.50;;;5.40;;
8580;SDS011;4328;48.622;9.230;2023-03-31T06:57:06;11.60;;;6.70;;
8580;SDS011;4328;48.622;9.230;2023-03-31T06:59:34;13.57;;;10.30;;
8580;SDS011;4328;48.622;9.230;2023-03-31T07:02:00;8.60;;;6.70;;
8580;SDS011;4328;48.622;9.230;2023-03-31T07:04:26;8.20;;;7.13;;
8580;SDS011;4328;48.622;9.230;2023-03-31T07:06:53;10.93;;;6.10;;
8580;SDS011;4328;48.622;9.230;2023-03-31T07:09:19;11.00;;;6.80;;
8580;SDS011;4328;48.622;9.230;2023-03-31T07:11:47;11.40;;;6.60;;
8580;SDS011;4328;48.622;9.230;2023-03-31T07:14:13;8.03;;;4.73;;
8580;SDS011;4328;48.622;9.230;2023-03-31T07:16:41;4.73;;;3.53;;
8580;SDS011;4328;48.622;9.230;2023-03-31T07:19:08;4.97;;;3.10;;
8580;SDS011;4328;48.622;9.230;2023-03-31T07:21:35;3.67;;;3.17;;
8580;SDS011;4328;48.622;9.230;2023-03-31T07:24:01;5.97;;;3.20;;
8580;SDS011;4328;48.622;9.230;2023-03-31T07:26:27;4.13;;;2.87;;
8580;SDS011;4328;48.622;9.230;2023-03-31T07:28:54;2.97;;;2.43;;
8580;SDS011;4328;48.622;9.230;2023-03-31T07:31:21;2.47;;;2.27;;
8580;SDS011;4328;48.622;9.230;2023-03-31T07:33:49;4.17;;;2.00;;
8580;SDS011;4328;48.622;9.230;2023-03-31T07:36:16;2.10;;;1.70;;
8580;SDS011;4328;48.622;9.230;2023-03-31T07:38:43;1.90;;;1.40;;
8580;SDS011;4328;48.622;9.230;2023-03-31T07:41:10;1.60;;;1.50;;
8580;SDS011;4328;48.622;9.230;2023-03-31T07:43:37;2.10;;;2.00;;
8580;SDS011;4328;48.622;9.230;2023-03-31T07:46:03;4.97;;;4.37;;
8580;SDS011;4328;48.622;9.230;2023-03-31T07:48:31;2.37;;;2.17;;
8580;SDS011;4328;48.622;9.230;2023-03-31T07:50:59;2.07;;;1.63;;
8580;SDS011;4328;48.622;9.230;2023-03-31T07:53:26;2.37;;;2.00;;
8580;SDS011;4328;48.622;9.230;2023-03-31T07:55:52;8.43;;;7.60;;
8580;SDS011;4328;48.622;9.230;2023-03-31T07:58:18;3.50;;;3.07;;
8580;SDS011;4328;48.622;9.230;2023-03-31T08:00:45;2.57;;;2.37;;
8580;SDS011;4328;48.622;9.230;2023-03-31T08:03:11;3.20;;;2.47;;
8580;SDS011;4328;48.622;9.230;2023-03-31T08:05:37;3.47;;;2.43;;
8580;SDS011;4328;48.622;9.230;2023-03-31T08:08:05;2.40;;;1.80;;
8580;SDS011;4328;48.622;9.230;2023-03-31T08:10:32;2.77;;;1.60;;
8580;SDS011;4328;48.622;9.230;2023-03-31T08:12:58;2.07;;;1.77;;
8580;SDS011;4328;48.622;9.230;2023-03-31T08:15:25;2.23;;;1.30;;
8580;SDS011;4328;48.622;9.230;2023-03-31T08:17:51;1.40;;;1.30;;
8580;SDS011;4328;48.622;9.230;2023-03-31T08:20:17;1.07;;;1.00;;
8580;SDS011;4328;48.622;9.230;2023-03-31T08:22:44;1.20;;;1.10;;
8580;SDS011;4328;48.622;9.230;2023-03-31T08:25:12;1.50;;;1.13;;
8580;SDS011;4328;48.622;9.230;2023-03-31T08:27:39;1.50;;;1.17;;
8580;SDS011;4328;48.622;9.230;2023-03-31T08:30:06;1.23;;;1.00;;
8580;SDS011;4328;48.622;9.230;2023-03-31T08:32:33;1.47;;;0.90;;
8580;SDS011;4328;48.622;9.230;2023-03-31T08:34:59;0.90;;;0.90;;
8580;SDS011;4328;48.622;9.230;2023-03-31T08:37:26;0.70;;;0.70;;
8580;SDS011;4328;48.622;9.230;2023-03-31T08:39:53;0.80;;;0.80;;
8580;SDS011;4328;48.622;9.230;2023-03-31T08:42:21;0.90;;;0.90;;
8580;SDS011;4328;48.622;9.230;2023-03-31T08:44:52;0.70;;;0.70;;
8580;SDS011;4328;48.622;9.230;2023-03-31T08:47:21;1.00;;;0.70;;
8580;SDS011;4328;48.622;9.230;2023-03-31T08:49:49;0.90;;;0.90;;
8580;SDS011;4328;48.622;9.230;2023-03-31T08:52:18;1.47;;;0.80;;
8580;SDS011;4328;48.622;9.230;2023-03-31T08:54:47;0.60;;;0.60;;
8580;SDS011;4328;48.622;9.230;2023-03-31T08:57:17;1.07;;;0.73;;
8580;SDS011;4328;48.622;9.230;2023-03-31T08:59:46;1.00;;;0.80;;
8580;SDS011;4328;48.622;9.230;2023-03-31T09:02:17;1.63;;;0.70;;
8580;SDS011;4328;48.622;9.230;2023-03-31T09:05:04;0.70;;;0.63;;
8580;SDS011;4328;48.622;9.230;2023-03-31T09:07:39;0.73;;;0.70;;
8580;SDS011;4328;48.622;9.230;2023-03-31T09:10:12;1.77;;;0.60;;
8580;SDS011;4328;48.622;9.230;2023-03-31T09:12:45;1.17;;;0.73;;
8580;SDS011;4328;48.622;9.230;2023-03-31T09:15:18;2.47;;;0.70;;
8580;SDS011;4328;48.622;9.230;2023-03-31T09:17:49;0.80;;;0.73;;
8580;SDS011;4328;48.622;9.230;2023-03-31T09:20:17;1.17;;;0.67;;
8580;SDS011;4328;48.622;9.230;2023-03-31T09:22:45;1.30;;;0.87;;
8580;SDS011;4328;48.622;9.230;2023-03-31T09:25:13;0.80;;;0.80;;
8580;SDS011;4328;48.622;9.230;2023-03-31T09:27:41;0.87;;;0.70;;
8580;SDS011;4328;48.622;9.230;2023-03-31T09:30:09;1.25;;;0.60;;
8580;SDS011;4328;48.622;9.230;2023-03-31T09:32:40;1.07;;;0.57;;
8580;SDS011;4328;48.622;9.230;2023-03-31T09:35:12;0.82;;;0.73;;
8580;SDS011;4328;48.622;9.230;2023-03-31T09:37:39;1.13;;;0.65;;
8580;SDS011;4328;48.622;9.230;2023-03-31T09:40:06;1.20;;;0.80;;
8580;SDS011;4328;48.622;9.230;2023-03-31T09:42:33;0.95;;;0.60;;
8580;SDS011;4328;48.622;9.230;2023-03-31T09:45:00;1.20;;;0.70;;
8580;SDS011;4328;48.622;9.230;2023-03-31T09:47:28;1.53;;;0.70;;
8580;SDS011;4328;48.622;9.230;2023-03-31T09:49:58;1.53;;;0.80;;
8580;SDS011;4328;48.622;9.230;2023-03-31T09:52:26;1.93;;;0.80;;
8580;SDS011;4328;48.622;9.230;2023-03-31T09:54:53;1.37;;;0.90;;
8580;SDS011;4328;48.622;9.230;2023-03-31T09:57:25;3.97;;;0.90;;
8580;SDS011;4328;48.622;9.230;2023-03-31T09:59:52;0.90;;;0.70;;
8580;SDS011;4328;48.622;9.230;2023-03-31T10:02:32;0.90;;;0.77;;
8580;SDS011;4328;48.622;9.230;2023-03-31T10:05:00;2.50;;;0.90;;
8580;SDS011;4328;48.622;9.230;2023-03-31T10:07:27;2.20;;;1.00;;
8580;SDS011;4328;48.622;9.230;2023-03-31T10:09:53;1.60;;;1.07;;
8580;SDS011;4328;48.622;9.230;2023-03-31T10:12:21;2.23;;;1.10;;
8580;SDS011;4328;48.622;9.230;2023-03-31T10:14:49;2.13;;;0.97;;
8580;SDS011;4328;48.622;9.230;2023-03-31T10:17:16;2.43;;;0.93;;
8580;SDS011;4328;48.622;9.230;2023-03-31T10:19:46;2.80;;;1.07;;
8580;SDS011;4328;48.622;9.230;2023-03-31T10:22:15;2.87;;;1.20;;
8580;SDS011;4328;48.622;9.230;2023-03-31T10:24:51;2.10;;;1.10;;
8580;SDS011;4328;48.622;9.230;2023-03-31T10:27:19;2.80;;;1.20;;
8580;SDS011;4328;48.622;9.230;2023-03-31T10:29:46;3.50;;;1.13;;
8580;SDS011;4328;48.622;9.230;2023-03-31T10:32:15;2.30;;;1.20;;
8580;SDS011;4328;48.622;9.230;2023-03-31T10:34:43;3.30;;;0.90;;
8580;SDS011;4328;48.622;9.230;2023-03-31T10:37:10;1.67;;;1.10;;
8580;SDS011;4328;48.622;9.230;2023-03-31T10:39:41;3.50;;;1.10;;
8580;SDS011;4328;48.622;9.230;2023-03-31T10:42:08;2.80;;;1.40;;
8580;SDS011;4328;48.622;9.230;2023-03-31T10:44:35;2.58;;;1.20;;
8580;SDS011;4328;48.622;9.230;2023-03-31T10:47:03;3.13;;;1.20;;
8580;SDS011;4328;48.622;9.230;2023-03-31T10:49:35;3.22;;;1.10;;
8580;SDS011;4328;48.622;9.230;2023-03-31T10:52:02;2.17;;;1.08;;
8580;SDS011;4328;48.622;9.230;2023-03-31T10:54:28;3.93;;;1.20;;
8580;SDS011;4328;48.622;9.230;2023-03-31T10:56:56;2.87;;;1.30;;
8580;SDS011;4328;48.622;9.230;2023-03-31T10:59:28;3.10;;;1.47;;
8580;SDS011;4328;48.622;9.230;2023-03-31T11:02:02;2.67;;;1.13;;
8580;SDS011;4328;48.622;9.230;2023-03-31T11:04:37;3.10;;;1.20;;
8580;SDS011;4328;48.622;9.230;2023-03-31T11:07:08;2.80;;;1.13;;
8580;SDS011;4328;48.622;9.230;2023-03-31T11:09:39;2.03;;;1.00;;
8580;SDS011;4328;48.622;9.230;2023-03-31T11:12:13;3.63;;;0.90;;
8580;SDS011;4328;48.622;9.230;2023-03-31T11:14:45;2.93;;;1.10;;
8580;SDS011;4328;48.622;9.230;2023-03-31T11:17:17;1.83;;;1.03;;
8580;SDS011;4328;48.622;9.230;2023-03-31T11:19:49;4.40;;;1.00;;
8580;SDS011;4328;48.622;9.230;2023-03-31T11:22:20;5.70;;;1.47;;
8580;SDS011;4328;48.622;9.230;2023-03-31T11:24:55;4.77;;;1.30;;
8580;SDS011;4328;48.622;9.230;2023-03-31T11:27:32;3.30;;;1.20;;
8580;SDS011;4328;48.622;9.230;2023-03-31T11:30:03;3.50;;;1.03;;
8580;SDS011;4328;48.622;9.230;2023-03-31T11:32:39;1.63;;;0.63;;
8580;SDS011;4328;48.622;9.230;2023-03-31T11:35:12;1.67;;;0.60;;
8580;SDS011;4328;48.622;9.230;2023-03-31T11:37:47;1.10;;;0.53;;
8580;SDS011;4328;48.622;9.230;2023-03-31T11:40:22;1.17;;;0.90;;
8580;SDS011;4328;48.622;9.230;2023-03-31T11:42:55;1.47;;;0.67;;
8580;SDS011;4328;48.622;9.230;2023-03-31T11:45:24;0.87;;;0.77;;
8580;SDS011;4328;48.622;9.230;2023-03-31T11:47:53;0.90;;;0.77;;
8580;SDS011;4328;48.622;9.230;2023-03-31T11:50:22;0.30;;;0.30;;
8580;SDS011;4328;48.622;9.230;2023-03-31T11:52:52;2.37;;;2.17;;
8580;SDS011;4328;48.622;9.230;2023-03-31T11:55:21;1.40;;;0.50;;
8580;SDS011;4328;48.622;9.230;2023-03-31T11:57:49;0.40;;;0.40;;
8580;SDS011;4328;48.622;9.230;2023-03-31T12:00:22;0.80;;;0.40;;
8580;SDS011;4328;48.622;9.230;2023-03-31T12:02:52;1.00;;;0.70;;
8580;SDS011;4328;48.622;9.230;2023-03-31T12:05:19;0.93;;;0.60;;
8580;SDS011;4328;48.622;9.230;2023-03-31T12:07:49;1.43;;;0.30;;
8580;SDS011;4328;48.622;9.230;2023-03-31T12:10:18;0.30;;;0.20;;
8580;SDS011;4328;48.622;9.230;2023-03-31T12:12:46;4.00;;;3.80;;
8580;SDS011;4328;48.622;9.230;2023-03-31T12:15:16;0.47;;;0.40;;
8580;SDS011;4328;48.622;9.230;2023-03-31T12:17:46;0.90;;;0.40;;
8580;SDS011;4328;48.622;9.230;2023-03-31T12:20:16;1.30;;;0.50;;
8580;SDS011;4328;48.622;9.230;2023-03-31T12:22:46;0.90;;;0.50;;
8580;SDS011;4328;48.622;9.230;2023-03-31T12:25:13;1.13;;;0.47;;
8580;SDS011;4328;48.622;9.230;2023-03-31T12:27:40;0.63;;;0.30;;
8580;SDS011;4328;48.622;9.230;2023-03-31T12:30:09;0.40;;;0.30;;
8580;SDS011;4328;48.622;9.230;2023-03-31T12:32:37;0.40;;;0.23;;
8580;SDS011;4328;48.622;9.230;2023-03-31T12:35:07;0.57;;;0.50;;
8580;SDS011;4328;48.622;9.230;2023-03-31T12:37:46;1.10;;;0.50;;
8580;SDS011;4328;48.622;9.230;2023-03-31T12:40:21;0.50;;;0.40;;
8580;SDS011;4328;48.622;9.230;2023-03-31T12:42:55;0.30;;;0.30;;
8580;SDS011;4328;48.622;9.230;2023-03-31T12:45:26;0.60;;;0.40;;
8580;SDS011;4328;48.622;9.230;2023-03-31T12:48:00;1.10;;;0.40;;
8580;SDS011;4328;48.622;9.230;2023-03-31T12:50:37;1.13;;;0.40;;
8580;SDS011;4328;48.622;9.230;2023-03-31T12:53:09;1.03;;;0.60;;
8580;SDS011;4328;48.622;9.230;2023-03-31T12:55:38;0.63;;;0.50;;
8580;SDS011;4328;48.622;9.230;2023-03-31T13:01:00;0.73;;;0.63;;
8580;SDS011;4328;48.622;9.230;2023-03-31T13:03:35;1.97;;;0.70;;
8580;SDS011;4328;48.622;9.230;2023-03-31T13:06:04;1.10;;;0.80;;
8580;SDS011;4328;48.622;9.230;2023-03-31T13:08:53;0.60;;;0.50;;
8580;SDS011;4328;48.622;9.230;2023-03-31T13:11:20;1.05;;;0.60;;
8580;SDS011;4328;48.622;9.230;2023-03-31T13:13:52;1.67;;;0.87;;
8580;SDS011;4328;48.622;9.230;2023-03-31T13:16:20;2.07;;;1.03;;
8580;SDS011;4328;48.622;9.230;2023-03-31T13:18:50;2.47;;;1.10;;
8580;SDS011;4328;48.622;9.230;2023-03-31T13:21:18;2.83;;;0.90;;
8580;SDS011;4328;48.622;9.230;2023-03-31T13:23:45;2.77;;;0.90;;
8580;SDS011;4328;48.622;9.230;2023-03-31T13:34:27;4.73;;;1.07;;
8580;SDS011;4328;48.622;9.230;2023-03-31T13:37:02;2.20;;;1.03;;
8580;SDS011;4328;48.622;9.230;2023-03-31T13:39:39;1.93;;;0.87;;
8580;SDS011;4328;48.622;9.230;2023-03-31T13:42:15;1.77;;;0.87;;
8580;SDS011;4328;48.622;9.230;2023-03-31T13:44:59;2.97;;;1.00;;
8580;SDS011;4328;48.622;9.230;2023-03-31T13:50:15;3.40;;;0.90;;
8580;SDS011;4328;48.622;9.230;2023-03-31T13:52:45;2.37;;;0.70;;
8580;SDS011;4328;48.622;9.230;2023-03-31T13:55:46;1.07;;;0.80;;
8580;SDS011;4328;48.622;9.230;2023-03-31T13:58:19;2.33;;;0.50;;
8580;SDS011;4328;48.622;9.230;2023-03-31T14:00:54;0.93;;;0.60;;
8580;SDS011;4328;48.622;9.230;2023-03-31T14:03:26;3.30;;;0.83;;
8580;SDS011;4328;48.622;9.230;2023-03-31T14:05:55;1.10;;;0.40;;
8580;SDS011;4328;48.622;9.230;2023-03-31T14:08:28;0.60;;;0.40;;
8580;SDS011;4328;48.622;9.230;2023-03-31T14:13:39;1.47;;;0.50;;
8580;SDS011;4328;48.622;9.230;2023-03-31T14:16:05;0.30;;;0.30;;
8580;SDS011;4328;48.622;9.230;2023-03-31T14:18:32;0.83;;;0.43;;
8580;SDS011;4328;48.622;9.230;2023-03-31T14:21:02;1.37;;;0.33;;
8580;SDS011;4328;48.622;9.230;2023-03-31T14:23:36;2.30;;;0.50;;
8580;SDS011;4328;48.622;9.230;2023-03-31T14:26:05;0.87;;;0.50;;
8580;SDS011;4328;48.622;9.230;2023-03-31T14:28:36;1.63;;;0.40;;
8580;SDS011;4328;48.622;9.230;2023-03-31T14:31:11;1.93;;;0.50;;
8580;SDS011;4328;48.622;9.230;2023-03-31T14:33:46;0.40;;;0.30;;
8580;SDS011;4328;48.622;9.230;2023-03-31T14:36:18;0.30;;;0.30;;
8580;SDS011;4328;48.622;9.230;2023-03-31T14:38:51;1.53;;;0.33;;
8580;SDS011;4328;48.622;9.230;2023-03-31T14:41:18;0.70;;;0.50;;
8580;SDS011;4328;48.622;9.230;2023-03-31T14:43:53;2.60;;;0.50;;
8580;SDS011;4328;48.622;9.230;2023-03-31T14:46:20;1.53;;;0.60;;
8580;SDS011;4328;48.622;9.230;2023-03-31T14:48:47;1.23;;;0.70;;
8580;SDS011;4328;48.622;9.230;2023-03-31T14:51:15;3.03;;;0.50;;
8580;SDS011;4328;48.622;9.230;2023-03-31T14:53:41;1.83;;;0.70;;
8580;SDS011;4328;48.622;9.230;2023-03-31T14:56:10;1.87;;;0.90;;
8580;SDS011;4328;48.622;9.230;2023-03-31T14:58:37;1.40;;;0.70;;
8580;SDS011;4328;48.622;9.230;2023-03-31T15:01:06;0.60;;;0.40;;
8580;SDS011;4328;48.622;9.230;2023-03-31T15:03:33;1.30;;;0.70;;
8580;SDS011;4328;48.622;9.230;2023-03-31T15:06:01;0.93;;;0.40;;
8580;SDS011;4328;48.622;9.230;2023-03-31T15:08:29;0.73;;;0.60;;
8580;SDS011;4328;48.622;9.230;2023-03-31T15:10:57;0.57;;;0.50;;
8580;SDS011;4328;48.622;9.230;2023-03-31T15:13:27;1.23;;;0.60;;
8580;SDS011;4328;48.622;9.230;2023-03-31T15:15:55;0.83;;;0.70;;
8580;SDS011;4328;48.622;9.230;2023-03-31T15:18:24;0.97;;;0.53;;
8580;SDS011;4328;48.622;9.230;2023-03-31T15:20:50;0.80;;;0.47;;
8580;SDS011;4328;48.622;9.230;2023-03-31T15:23:18;0.63;;;0.40;;
8580;SDS011;4328;48.622;9.230;2023-03-31T15:25:49;0.30;;;0.30;;
8580;SDS011;4328;48.622;9.230;2023-03-31T15:28:16;0.53;;;0.30;;
8580;SDS011;4328;48.622;9.230;2023-03-31T15:30:44;1.87;;;0.70;;
8580;SDS011;4328;48.622;9.230;2023-03-31T15:33:16;1.00;;;0.63;;
8580;SDS011;4328;48.622;9.230;2023-03-31T15:35:43;1.37;;;0.60;;
8580;SDS011;4328;48.622;9.230;2023-03-31T15:38:10;1.00;;;0.50;;
8580;SDS011;4328;48.622;9.230;2023-03-31T15:40:38;0.47;;;0.47;;
8580;SDS011;4328;48.622;9.230;2023-03-31T15:43:05;0.67;;;0.50;;
8580;SDS011;4328;48.622;9.230;2023-03-31T15:45:37;0.97;;;0.50;;
8580;SDS011;4328;48.622;9.230;2023-03-31T15:48:13;0.87;;;0.50;;
8580;SDS011;4328;48.622;9.230;2023-03-31T15:50:41;0.97;;;0.60;;